createdAt,value
2023-03-18T00:01:36.000Z,1.26
2023-03-18T00:04:24.295Z,1.07
2023-03-18T00:07:10.767Z,1.30
2023-03-18T00:09:56.623Z,1.13
2023-03-18T00:12:43.142Z,1.06
2023-03-18T00:15:28.951Z,-0.06
2023-03-18T00:18:14.334Z,1.19
2023-03-18T00:21:01.161Z,1.16
2023-03-18T00:23:48.814Z,1.17
2023-03-18T00:26:34.392Z,1.00
2023-03-18T00:29:19.849Z,0.95
2023-03-18T00:32:05.517Z,0.86
2023-03-18T00:34:50.786Z,0.78
2023-03-18T00:37:36.704Z,-0.08
2023-03-18T00:40:30.974Z,1.07
2023-03-18T00:43:16.483Z,1.10
2023-03-18T00:46:02.063Z,-0.23
2023-03-18T00:48:48.475Z,1.06
2023-03-18T00:51:35.650Z,0.95
2023-03-18T00:54:22.484Z,0.89
2023-03-18T00:57:08.067Z,0.74
2023-03-18T00:59:54.095Z,0.83
2023-03-18T01:02:39.550Z,-0.46
2023-03-18T01:05:25.221Z,0.75
2023-03-18T01:08:10.836Z,0.65
2023-03-18T01:10:57.589Z,0.59
2023-03-18T01:13:42.952Z,0.36
2023-03-18T01:16:30.152Z,0.11
2023-03-18T01:19:16.059Z,-0.81
2023-03-18T01:22:03.191Z,0.51
2023-03-18T01:24:52.869Z,0.60
2023-03-18T01:27:44.828Z,-0.55
2023-03-18T01:30:31.427Z,0.59
2023-03-18T01:33:17.903Z,0.69
2023-03-18T01:36:05.066Z,0.68
2023-03-18T01:38:51.959Z,0.70
2023-03-18T01:41:37.730Z,-0.72
2023-03-18T01:44:25.654Z,0.21
2023-03-18T01:47:16.597Z,0.35
2023-03-18T01:50:08.242Z,0.34
2023-03-18T01:53:05.002Z,-0.59
2023-03-18T01:55:52.188Z,0.21
2023-03-18T01:58:42.057Z,0.24
2023-03-18T02:01:34.747Z,0.34
2023-03-18T02:04:27.383Z,-0.51
2023-03-18T02:07:35.953Z,0.09
2023-03-18T02:10:26.243Z,0.13
2023-03-18T02:13:16.080Z,0.21
2023-03-18T02:16:15.711Z,-1.16
2023-03-18T02:19:09.673Z,0.25
2023-03-18T02:22:08.801Z,0.26
2023-03-18T02:24:54.850Z,0.26
2023-03-18T02:27:43.259Z,-0.08
2023-03-18T02:30:34.310Z,0.23
2023-03-18T02:33:25.986Z,0.14
2023-03-18T02:36:18.674Z,0.15
2023-03-18T02:39:05.335Z,-0.94
2023-03-18T02:41:50.710Z,0.05
2023-03-18T02:44:41.682Z,-0.19
2023-03-18T02:47:51.895Z,0.19
2023-03-18T02:50:37.160Z,-0.27
2023-03-18T02:53:22.616Z,-0.08
2023-03-18T02:56:09.189Z,0.18
2023-03-18T02:58:55.709Z,-0.15
2023-03-18T03:01:44.048Z,0.17
2023-03-18T03:04:29.341Z,0.17
2023-03-18T03:07:14.701Z,-0.82
2023-03-18T03:10:06.789Z,0.20
2023-03-18T03:12:52.823Z,-1.39
2023-03-18T03:15:40.823Z,0.20
2023-03-18T03:18:26.833Z,-1.27
2023-03-18T03:21:14.260Z,-0.01
2023-03-18T03:24:04.017Z,0.24
2023-03-18T03:26:49.352Z,0.20
2023-03-18T03:29:34.750Z,-1.10
2023-03-18T03:32:20.681Z,0.12
2023-03-18T03:35:09.414Z,0.05
2023-03-18T03:37:55.807Z,0.28
2023-03-18T03:40:42.351Z,-1.09
2023-03-18T03:43:27.853Z,-1.02
2023-03-18T03:46:13.466Z,-0.95
2023-03-18T03:48:59.197Z,-1.06
2023-03-18T03:51:45.016Z,-1.06
2023-03-18T03:54:30.729Z,-0.86
2023-03-18T03:57:17.502Z,0.32
2023-03-18T04:00:05.312Z,-0.87
2023-03-18T04:03:00.619Z,-1.09
2023-03-18T04:05:47.733Z,-0.12
2023-03-18T04:08:36.311Z,-1.09
2023-03-18T04:11:22.532Z,0.09
2023-03-18T04:14:08.157Z,0.22
2023-03-18T04:16:58.048Z,-1.32
2023-03-18T04:19:43.852Z,0.03
2023-03-18T04:22:29.680Z,0.21
2023-03-18T04:25:15.623Z,-0.05
2023-03-18T04:28:01.095Z,-0.20
2023-03-18T04:30:48.258Z,-1.08
2023-03-18T04:33:35.965Z,-0.87
2023-03-18T04:36:21.627Z,0.03
2023-03-18T04:39:09.612Z,0.33
2023-03-18T04:41:57.224Z,0.17
2023-03-18T04:44:43.873Z,0.43
2023-03-18T04:47:30.037Z,0.16
2023-03-18T04:50:15.827Z,0.11
2023-03-18T04:53:01.913Z,0.42
2023-03-18T04:55:51.638Z,-0.92
2023-03-18T04:58:41.361Z,0.73
2023-03-18T05:01:31.002Z,-0.11
2023-03-18T05:04:16.935Z,0.12
2023-03-18T05:07:07.359Z,1.25
2023-03-18T05:09:57.143Z,1.51
2023-03-18T05:12:43.555Z,1.69
2023-03-18T05:15:31.907Z,0.60
2023-03-18T05:18:18.788Z,0.78
2023-03-18T05:21:10.137Z,2.32
2023-03-18T05:23:57.334Z,2.40
2023-03-18T05:26:43.387Z,2.67
2023-03-18T05:29:31.399Z,3.00
2023-03-18T05:32:47.588Z,3.23
2023-03-18T05:35:34.719Z,3.52
2023-03-18T05:38:20.683Z,3.53
2023-03-18T05:41:07.242Z,3.80
2023-03-18T05:43:57.327Z,3.93
2023-03-18T05:46:44.334Z,4.24
2023-03-18T05:49:36.309Z,4.37
2023-03-18T05:52:49.440Z,4.49
2023-03-18T05:55:40.558Z,3.79
2023-03-18T05:58:31.070Z,4.99
2023-03-18T06:01:31.560Z,3.91
2023-03-18T06:04:19.342Z,4.84
2023-03-18T06:07:06.148Z,4.17
2023-03-18T06:09:53.316Z,4.28
2023-03-18T06:12:39.888Z,5.60
2023-03-18T06:15:25.815Z,4.45
2023-03-18T06:18:11.737Z,4.89
2023-03-18T06:20:57.360Z,5.63
2023-03-18T06:23:43.258Z,5.89
2023-03-18T06:26:29.311Z,5.96
2023-03-18T06:29:15.179Z,4.92
2023-03-18T06:32:04.055Z,4.94
2023-03-18T06:34:49.874Z,5.70
2023-03-18T06:37:35.573Z,5.77
2023-03-18T06:40:22.370Z,4.98
2023-03-18T06:43:09.109Z,5.98
2023-03-18T06:45:56.845Z,5.99
2023-03-18T06:48:44.680Z,5.82
2023-03-18T06:51:36.699Z,5.98
2023-03-18T06:54:22.429Z,5.95
2023-03-18T06:57:08.649Z,6.01
2023-03-18T06:59:55.073Z,5.80
2023-03-18T07:02:42.034Z,5.98
2023-03-18T07:05:30.908Z,4.75
2023-03-18T07:08:16.961Z,6.03
2023-03-18T07:11:04.326Z,5.76
2023-03-18T07:13:51.283Z,6.00
2023-03-18T07:16:46.500Z,5.99
2023-03-18T07:19:33.639Z,6.48
2023-03-18T07:22:19.836Z,6.46
2023-03-18T07:25:11.090Z,6.69
2023-03-18T07:28:00.464Z,6.75
2023-03-18T07:30:46.997Z,6.83
2023-03-18T07:33:33.252Z,6.04
2023-03-18T07:36:19.895Z,6.72
2023-03-18T07:39:10.127Z,6.76
2023-03-18T07:41:55.660Z,5.79
2023-03-18T07:44:47.509Z,6.90
2023-03-18T07:47:35.599Z,5.88
2023-03-18T07:50:21.969Z,6.10
2023-03-18T07:53:07.554Z,7.07
2023-03-18T07:55:53.772Z,6.91
2023-03-18T07:58:39.439Z,7.00
2023-03-18T08:01:25.636Z,6.06
2023-03-18T08:04:11.249Z,7.09
2023-03-18T08:06:58.284Z,5.96
2023-03-18T08:09:45.650Z,7.23
2023-03-18T08:12:45.366Z,7.28
2023-03-18T08:15:37.306Z,7.21
2023-03-18T08:18:24.088Z,7.46
2023-03-18T08:21:10.004Z,7.45
2023-03-18T08:23:56.773Z,7.51
2023-03-18T08:26:42.774Z,7.46
2023-03-18T08:30:03.791Z,7.61
2023-03-18T08:32:57.965Z,7.59
2023-03-18T08:35:43.572Z,6.67
2023-03-18T08:38:29.049Z,7.61
2023-03-18T08:42:28.010Z,7.66
2023-03-18T08:45:13.772Z,7.58
2023-03-18T08:48:00.387Z,6.54
2023-03-18T08:50:47.058Z,7.74
2023-03-18T08:53:32.881Z,7.65
2023-03-18T08:56:18.743Z,6.88
2023-03-18T08:59:04.594Z,7.89
2023-03-18T09:01:50.384Z,7.92
2023-03-18T09:04:36.895Z,6.79
2023-03-18T09:07:22.544Z,8.04
2023-03-18T09:10:09.602Z,7.40
2023-03-18T09:12:55.920Z,8.08
2023-03-18T09:15:42.261Z,6.89
2023-03-18T09:18:28.317Z,7.96
2023-03-18T09:21:14.363Z,8.16
2023-03-18T09:24:00.464Z,8.01
2023-03-18T09:26:47.951Z,8.16
2023-03-18T09:29:33.797Z,8.25
2023-03-18T09:32:19.667Z,8.31
2023-03-18T09:35:06.771Z,7.85
2023-03-18T09:37:54.069Z,7.55
2023-03-18T09:40:52.115Z,8.51
2023-03-18T09:43:41.128Z,8.66
2023-03-18T09:46:37.264Z,7.62
2023-03-18T09:49:28.866Z,7.97
2023-03-18T09:52:38.109Z,8.82
2023-03-18T09:55:30.642Z,8.84
2023-03-18T09:58:37.357Z,8.04
2023-03-18T10:01:26.504Z,8.94
2023-03-18T10:04:23.721Z,8.98
2023-03-18T10:07:23.154Z,9.02
2023-03-18T10:10:16.093Z,9.15
2023-03-18T10:13:06.431Z,9.24
2023-03-18T10:15:57.564Z,9.30
2023-03-18T10:18:45.213Z,9.27
2023-03-18T10:21:49.344Z,9.36
2023-03-18T10:24:48.835Z,8.13
2023-03-18T10:27:38.347Z,9.38
2023-03-18T10:30:57.815Z,9.45
2023-03-18T10:33:51.920Z,9.31
2023-03-18T10:36:51.118Z,9.57
2023-03-18T10:39:39.384Z,8.42
2023-03-18T10:42:32.085Z,9.61
2023-03-18T10:45:27.426Z,9.62
2023-03-18T10:48:38.779Z,9.61
2023-03-18T10:51:33.179Z,9.77
2023-03-18T10:54:32.908Z,9.88
2023-03-18T10:57:21.993Z,9.96
2023-03-18T11:00:18.736Z,9.91
2023-03-18T11:03:05.735Z,9.94
2023-03-18T11:05:53.374Z,8.94
2023-03-18T11:08:41.073Z,10.08
2023-03-18T11:11:33.426Z,10.05
2023-03-18T11:14:22.941Z,10.20
2023-03-18T11:17:31.184Z,10.26
2023-03-18T11:20:17.063Z,10.10
2023-03-18T11:23:12.892Z,9.09
2023-03-18T11:26:02.957Z,10.40
2023-03-18T11:28:48.956Z,9.45
2023-03-18T11:31:48.535Z,10.48
2023-03-18T11:34:35.506Z,9.42
2023-03-18T11:37:21.281Z,10.50
2023-03-18T11:40:20.125Z,10.60
2023-03-18T11:43:18.828Z,10.53
2023-03-18T11:46:07.149Z,10.53
2023-03-18T11:48:54.294Z,9.56
2023-03-18T11:51:46.205Z,10.73
2023-03-18T11:54:40.981Z,10.76
2023-03-18T11:57:30.227Z,10.81
2023-03-18T12:00:26.302Z,9.72
2023-03-18T12:03:43.303Z,10.92
2023-03-18T12:06:31.785Z,10.97
2023-03-18T12:09:47.363Z,10.82
2023-03-18T12:13:07.243Z,11.00
2023-03-18T12:16:04.181Z,10.99
2023-03-18T12:19:25.179Z,11.05
2023-03-18T12:22:39.899Z,11.13
2023-03-18T12:26:02.098Z,11.16
2023-03-18T12:29:11.445Z,11.13
2023-03-18T12:32:23.212Z,11.17
2023-03-18T12:35:42.396Z,9.96
2023-03-18T12:39:12.747Z,11.20
2023-03-18T12:42:13.559Z,11.26
2023-03-18T12:45:05.678Z,11.31
2023-03-18T12:48:00.864Z,11.22
2023-03-18T12:51:05.059Z,10.22
2023-03-18T12:53:55.717Z,11.35
2023-03-18T12:56:45.774Z,11.44
2023-03-18T12:59:42.467Z,11.31
2023-03-18T13:03:07.269Z,11.47
2023-03-18T13:05:57.396Z,11.48
2023-03-18T13:08:49.767Z,11.55
2023-03-18T13:12:02.247Z,11.57
2023-03-18T13:14:58.356Z,11.22
2023-03-18T13:17:46.490Z,11.55
2023-03-18T13:20:38.729Z,11.54
2023-03-18T13:23:34.125Z,11.57
2023-03-18T13:26:44.014Z,11.57
2023-03-18T13:29:36.335Z,11.58
2023-03-18T13:32:22.956Z,11.56
2023-03-18T13:35:23.454Z,11.32
2023-03-18T13:38:33.599Z,11.52
2023-03-18T13:41:46.764Z,11.52
2023-03-18T13:44:47.983Z,11.48
2023-03-18T13:47:37.917Z,11.52
2023-03-18T13:50:42.472Z,11.47
2023-03-18T13:53:31.793Z,10.72
2023-03-18T13:56:48.191Z,11.50
2023-03-18T13:59:35.458Z,10.62
2023-03-18T14:02:45.543Z,10.45
2023-03-18T14:05:40.039Z,11.31
2023-03-18T14:08:52.613Z,11.45
2023-03-18T14:11:47.513Z,11.13
2023-03-18T14:14:42.016Z,11.44
2023-03-18T14:18:02.964Z,11.33
2023-03-18T14:20:53.543Z,11.16
2023-03-18T14:23:44.553Z,11.39
2023-03-18T14:26:31.644Z,11.29
2023-03-18T14:29:26.554Z,10.20
2023-03-18T14:32:34.762Z,11.29
2023-03-18T14:35:28.050Z,11.26
2023-03-18T14:38:42.710Z,11.26
2023-03-18T14:41:31.518Z,10.00
2023-03-18T14:44:36.344Z,11.20
2023-03-18T14:47:43.525Z,11.20
2023-03-18T14:50:40.412Z,11.18
2023-03-18T14:53:35.154Z,11.14
2023-03-18T14:56:24.900Z,9.99
2023-03-18T14:59:24.443Z,11.06
2023-03-18T15:02:43.868Z,10.99
2023-03-18T15:05:37.542Z,10.97
2023-03-18T15:08:34.505Z,10.96
2023-03-18T15:11:39.266Z,10.75
2023-03-18T15:14:31.809Z,10.91
2023-03-18T15:17:17.776Z,10.75
2023-03-18T15:20:05.503Z,10.29
2023-03-18T15:22:52.865Z,9.67
2023-03-18T15:25:41.403Z,10.78
2023-03-18T15:28:29.171Z,8.78
2023-03-18T15:31:31.504Z,10.77
2023-03-18T15:34:27.651Z,10.72
2023-03-18T15:37:24.047Z,10.44
2023-03-18T15:40:30.668Z,10.61
2023-03-18T15:43:21.494Z,10.55
2023-03-18T15:46:24.239Z,10.52
2023-03-18T15:49:12.656Z,10.38
2023-03-18T15:52:03.724Z,9.48
2023-03-18T15:54:53.319Z,9.40
2023-03-18T15:57:43.541Z,10.21
2023-03-18T16:00:35.053Z,10.05
2023-03-18T16:03:27.246Z,8.91
2023-03-18T16:06:17.778Z,10.11
2023-03-18T16:09:35.398Z,10.20
2023-03-18T16:12:29.657Z,10.16
2023-03-18T16:15:25.251Z,10.12
2023-03-18T16:18:18.311Z,9.96
2023-03-18T16:21:09.603Z,9.99
2023-03-18T16:23:58.657Z,9.99
2023-03-18T16:26:46.936Z,9.98
2023-03-18T16:29:40.261Z,9.89
2023-03-18T16:32:28.710Z,9.63
2023-03-18T16:35:27.010Z,9.84
2023-03-18T16:38:19.600Z,9.80
2023-03-18T16:41:10.556Z,9.61
2023-03-18T16:44:00.370Z,9.49
2023-03-18T16:47:01.629Z,8.35
2023-03-18T16:49:48.767Z,8.52
2023-03-18T16:52:35.278Z,9.53
2023-03-18T16:55:21.366Z,9.21
2023-03-18T16:58:15.134Z,8.27
2023-03-18T17:01:05.612Z,9.14
2023-03-18T17:03:52.057Z,9.33
2023-03-18T17:06:38.276Z,9.32
2023-03-18T17:09:25.734Z,9.27
2023-03-18T17:12:12.098Z,8.82
2023-03-18T17:15:08.865Z,9.18
2023-03-18T17:17:58.147Z,9.13
2023-03-18T17:20:45.700Z,9.04
2023-03-18T17:23:33.661Z,9.01
2023-03-18T17:26:19.996Z,8.75
2023-03-18T17:29:06.150Z,8.95
2023-03-18T17:31:58.127Z,8.86
2023-03-18T17:34:47.378Z,8.69
2023-03-18T17:37:34.530Z,8.67
2023-03-18T17:40:26.555Z,8.77
2023-03-18T17:43:25.997Z,8.51
2023-03-18T17:46:11.922Z,8.50
2023-03-18T17:48:57.429Z,8.50
2023-03-18T17:51:43.658Z,7.29
2023-03-18T17:54:31.544Z,8.60
2023-03-18T17:57:17.700Z,8.58
2023-03-18T18:00:03.748Z,8.56
2023-03-18T18:02:54.837Z,8.51
2023-03-18T18:05:40.278Z,8.48
2023-03-18T18:08:26.986Z,8.35
2023-03-18T18:11:18.971Z,8.23
2023-03-18T18:14:25.044Z,8.13
2023-03-18T18:17:15.072Z,8.12
2023-03-18T18:20:00.590Z,8.24
2023-03-18T18:22:53.199Z,8.15
2023-03-18T18:25:38.782Z,7.26
2023-03-18T18:28:29.432Z,8.20
2023-03-18T18:31:17.734Z,7.40
2023-03-18T18:34:04.893Z,6.82
2023-03-18T18:36:51.471Z,8.06
2023-03-18T18:39:37.352Z,7.00
2023-03-18T18:42:22.901Z,7.94
2023-03-18T18:45:14.932Z,7.75
2023-03-18T18:48:00.335Z,6.64
2023-03-18T18:50:46.360Z,7.86
2023-03-18T18:53:36.640Z,7.74
2023-03-18T18:56:34.015Z,6.59
2023-03-18T18:59:23.331Z,7.67
2023-03-18T19:02:36.165Z,7.62
2023-03-18T19:05:22.093Z,7.61
2023-03-18T19:08:20.648Z,7.50
2023-03-18T19:11:10.080Z,7.56
2023-03-18T19:14:19.675Z,7.52
2023-03-18T19:17:06.174Z,7.25
2023-03-18T19:19:53.126Z,6.83
2023-03-18T19:22:38.829Z,7.25
2023-03-18T19:25:25.935Z,7.22
2023-03-18T19:28:20.859Z,7.33
2023-03-18T19:31:09.558Z,7.30
2023-03-18T19:33:55.354Z,7.25
2023-03-18T19:36:41.845Z,7.22
2023-03-18T19:39:28.406Z,7.11
2023-03-18T19:42:16.673Z,6.15
2023-03-18T19:45:02.649Z,7.13
2023-03-18T19:47:48.868Z,7.10
2023-03-18T19:50:35.318Z,7.04
2023-03-18T19:53:28.132Z,7.02
2023-03-18T19:56:26.605Z,6.96
2023-03-18T19:59:20.966Z,7.05
2023-03-18T20:02:22.637Z,7.04
2023-03-18T20:05:20.125Z,6.82
2023-03-18T20:08:06.378Z,6.98
2023-03-18T20:10:51.952Z,6.79
2023-03-18T20:13:37.533Z,6.81
2023-03-18T20:16:24.850Z,6.86
2023-03-18T20:19:14.626Z,6.64
2023-03-18T20:22:00.716Z,6.93
2023-03-18T20:24:46.917Z,6.92
2023-03-18T20:27:32.631Z,6.72
2023-03-18T20:30:26.036Z,6.36
2023-03-18T20:33:16.471Z,6.77
2023-03-18T20:36:18.671Z,6.66
2023-03-18T20:39:06.125Z,6.63
2023-03-18T20:41:52.020Z,5.70
2023-03-18T20:44:37.632Z,6.62
2023-03-18T20:47:23.144Z,6.54
2023-03-18T20:50:13.947Z,6.49
2023-03-18T20:53:24.034Z,6.47
2023-03-18T20:56:12.257Z,6.33
2023-03-18T20:58:58.036Z,6.23
2023-03-18T21:01:43.926Z,6.26
2023-03-18T21:04:31.032Z,6.06
2023-03-18T21:07:16.657Z,6.13
2023-03-18T21:10:02.088Z,5.99
2023-03-18T21:12:48.437Z,5.98
2023-03-18T21:15:34.202Z,5.94
2023-03-18T21:18:19.893Z,5.73
2023-03-18T21:21:05.586Z,5.70
2023-03-18T21:23:52.470Z,5.58
2023-03-18T21:26:41.945Z,5.68
2023-03-18T21:29:27.825Z,5.49
2023-03-18T21:32:22.154Z,4.79
2023-03-18T21:35:17.150Z,4.85
2023-03-18T21:38:03.068Z,5.38
2023-03-18T21:40:53.176Z,5.37
2023-03-18T21:43:43.728Z,4.15
2023-03-18T21:46:30.683Z,5.36
2023-03-18T21:49:16.765Z,5.43
2023-03-18T21:52:02.570Z,5.42
2023-03-18T21:54:48.413Z,4.21
2023-03-18T21:57:34.119Z,5.38
2023-03-18T22:00:22.533Z,5.38
2023-03-18T22:03:15.816Z,5.32
2023-03-18T22:06:01.681Z,5.19
2023-03-18T22:08:47.807Z,4.99
2023-03-18T22:11:33.418Z,5.18
2023-03-18T22:14:18.947Z,5.24
2023-03-18T22:17:29.065Z,5.25
2023-03-18T22:20:21.754Z,4.09
2023-03-18T22:23:18.667Z,5.25
2023-03-18T22:26:04.520Z,5.21
2023-03-18T22:28:50.904Z,5.17
2023-03-18T22:31:37.386Z,5.15
2023-03-18T22:34:23.619Z,5.10
2023-03-18T22:37:25.274Z,5.06
2023-03-18T22:40:26.321Z,5.02
2023-03-18T22:43:35.950Z,3.68
2023-03-18T22:46:21.720Z,4.74
2023-03-18T22:49:08.337Z,4.66
2023-03-18T22:51:53.573Z,4.81
2023-03-18T22:54:39.204Z,4.78
2023-03-18T22:57:28.122Z,4.72
2023-03-18T23:00:22.232Z,4.46
2023-03-18T23:03:35.081Z,4.55
2023-03-18T23:06:24.022Z,4.55
2023-03-18T23:09:09.730Z,4.34
2023-03-18T23:11:55.708Z,4.33
2023-03-18T23:14:41.883Z,4.24
2023-03-18T23:17:28.361Z,4.34
2023-03-18T23:20:16.738Z,4.38
2023-03-18T23:23:02.398Z,4.23
2023-03-18T23:25:49.646Z,4.15
2023-03-18T23:28:44.087Z,3.47
2023-03-18T23:31:31.791Z,4.36
2023-03-18T23:34:17.278Z,4.18
2023-03-18T23:37:02.688Z,4.28
2023-03-18T23:39:48.117Z,3.96
2023-03-18T23:42:35.685Z,4.32
2023-03-18T23:45:21.630Z,4.30
2023-03-18T23:48:07.464Z,4.27
2023-03-18T23:50:53.762Z,4.22
2023-03-18T23:53:39.565Z,4.16
2023-03-18T23:56:25.047Z,3.97
2023-03-18T23:59:10.496Z,4.17
